createdAt,value
2019-03-09T00:01:59.229Z,3.94
2019-03-09T00:04:30.600Z,3.92
2019-03-09T00:07:01.957Z,3.96
2019-03-09T00:09:33.337Z,4.01
2019-03-09T00:12:04.708Z,4.14
2019-03-09T00:14:36.008Z,4.24
2019-03-09T00:17:07.405Z,4.33
2019-03-09T00:19:38.674Z,4.47
2019-03-09T00:22:10.037Z,4.65
2019-03-09T00:24:55.203Z,4.54
2019-03-09T00:27:35.516Z,4.35
2019-03-09T00:30:22.438Z,4.14
2019-03-09T00:32:53.829Z,4.00
2019-03-09T00:35:25.090Z,3.80
2019-03-09T00:37:56.558Z,3.62
2019-03-09T00:40:27.956Z,3.57
2019-03-09T00:42:59.328Z,3.54
2019-03-09T00:45:30.661Z,3.57
2019-03-09T00:48:01.944Z,3.60
2019-03-09T00:50:33.753Z,3.62
2019-03-09T00:53:05.012Z,3.64
2019-03-09T00:55:36.330Z,3.66
2019-03-09T00:58:07.627Z,3.67
2019-03-09T01:00:39.106Z,3.69
2019-03-09T01:03:10.388Z,3.70
2019-03-09T01:05:41.793Z,3.70
2019-03-09T01:08:13.049Z,3.74
2019-03-09T01:10:44.468Z,3.75
2019-03-09T01:13:15.728Z,3.77
2019-03-09T01:15:47.092Z,3.78
2019-03-09T01:18:18.347Z,3.79
2019-03-09T01:20:49.925Z,3.80
2019-03-09T01:23:21.255Z,3.79
2019-03-09T01:25:52.632Z,3.81
2019-03-09T01:28:23.883Z,3.82
2019-03-09T01:30:55.303Z,3.84
2019-03-09T01:33:26.566Z,3.86
2019-03-09T01:35:57.959Z,3.88
2019-03-09T01:38:30.106Z,3.89
2019-03-09T01:41:01.534Z,3.88
2019-03-09T01:43:32.835Z,3.85
2019-03-09T01:46:04.252Z,3.85
2019-03-09T01:48:35.632Z,3.82
2019-03-09T01:51:07.040Z,3.79
2019-03-09T01:53:38.290Z,3.79
2019-03-09T01:56:09.555Z,3.79
2019-03-09T01:58:40.819Z,3.81
2019-03-09T02:01:12.230Z,3.82
2019-03-09T02:03:43.549Z,3.83
2019-03-09T02:06:14.890Z,3.85
2019-03-09T02:08:46.240Z,3.86
2019-03-09T02:11:17.720Z,3.85
2019-03-09T02:13:49.068Z,3.86
2019-03-09T02:16:20.488Z,3.87
2019-03-09T02:18:53.435Z,3.84
2019-03-09T02:21:24.868Z,3.84
2019-03-09T02:23:56.183Z,3.83
2019-03-09T02:26:27.679Z,3.83
2019-03-09T02:29:00.964Z,3.83
2019-03-09T02:31:32.015Z,3.84
2019-03-09T02:34:03.319Z,3.81
2019-03-09T02:36:34.644Z,3.82
2019-03-09T02:39:30.150Z,3.82
2019-03-09T02:42:01.397Z,3.82
2019-03-09T02:44:32.673Z,3.85
2019-03-09T02:47:04.115Z,3.86
2019-03-09T02:49:35.507Z,3.87
2019-03-09T02:52:06.778Z,3.90
2019-03-09T02:54:38.047Z,3.90
2019-03-09T02:57:09.517Z,3.89
2019-03-09T02:59:40.876Z,3.89
2019-03-09T03:02:31.372Z,3.89
2019-03-09T03:05:02.705Z,3.87
2019-03-09T03:07:34.085Z,3.81
2019-03-09T03:10:06.478Z,3.74
2019-03-09T03:12:37.808Z,3.63
2019-03-09T03:15:09.856Z,3.59
2019-03-09T03:17:41.493Z,3.57
2019-03-09T03:20:12.863Z,3.56
2019-03-09T03:22:44.269Z,3.54
2019-03-09T03:25:15.593Z,3.53
2019-03-09T03:27:48.983Z,3.51
2019-03-09T03:30:20.315Z,3.48
2019-03-09T03:32:53.436Z,3.46
2019-03-09T03:35:24.780Z,3.43
2019-03-09T03:37:56.089Z,3.39
2019-03-09T03:40:27.466Z,3.33
2019-03-09T03:42:58.953Z,3.30
2019-03-09T03:45:30.268Z,3.27
2019-03-09T03:48:01.533Z,3.28
2019-03-09T03:50:32.816Z,3.27
2019-03-09T03:53:04.225Z,3.25
2019-03-09T03:55:35.489Z,3.23
2019-03-09T03:58:06.898Z,3.23
2019-03-09T04:00:38.305Z,3.22
2019-03-09T04:03:09.781Z,3.20
2019-03-09T04:05:41.203Z,3.17
2019-03-09T04:08:12.898Z,3.14
2019-03-09T04:10:44.126Z,3.15
2019-03-09T04:13:15.493Z,3.16
2019-03-09T04:15:46.825Z,3.18
2019-03-09T04:18:19.733Z,3.17
2019-03-09T04:20:51.099Z,3.10
2019-03-09T04:23:22.476Z,3.04
2019-03-09T04:25:53.754Z,3.04
2019-03-09T04:28:25.141Z,3.03
2019-03-09T04:30:56.448Z,3.03
2019-03-09T04:33:31.891Z,3.01
2019-03-09T04:36:03.157Z,3.03
2019-03-09T04:38:34.563Z,3.03
2019-03-09T04:41:05.891Z,3.01
2019-03-09T04:43:37.200Z,3.03
2019-03-09T04:46:08.531Z,3.00
2019-03-09T04:48:39.821Z,2.97
2019-03-09T04:51:11.176Z,2.99
2019-03-09T04:53:42.453Z,2.98
2019-03-09T04:56:15.485Z,2.98
2019-03-09T04:58:47.774Z,3.02
2019-03-09T05:01:19.053Z,3.03
2019-03-09T05:04:11.857Z,3.01
2019-03-09T05:06:44.774Z,2.99
2019-03-09T05:09:30.043Z,2.93
2019-03-09T05:12:01.330Z,2.91
2019-03-09T05:14:32.587Z,2.89
2019-03-09T05:17:03.939Z,2.80
2019-03-09T05:19:35.263Z,2.81
2019-03-09T05:22:06.621Z,2.82
2019-03-09T05:24:38.053Z,2.82
2019-03-09T05:27:09.466Z,2.86
2019-03-09T05:29:40.965Z,2.85
2019-03-09T05:32:12.836Z,2.82
2019-03-09T05:34:44.933Z,2.85
2019-03-09T05:37:16.433Z,2.86
2019-03-09T05:39:47.818Z,2.91
2019-03-09T05:42:19.103Z,2.95
2019-03-09T05:44:51.291Z,3.02
2019-03-09T05:47:22.578Z,3.07
2019-03-09T05:49:53.921Z,3.13
2019-03-09T05:52:35.431Z,3.12
2019-03-09T05:55:16.299Z,3.15
2019-03-09T05:57:47.685Z,3.18
2019-03-09T06:00:19.141Z,3.22
2019-03-09T06:02:50.435Z,3.21
2019-03-09T06:05:33.175Z,3.23
2019-03-09T06:08:04.825Z,3.25
2019-03-09T06:10:36.205Z,3.25
2019-03-09T06:13:07.666Z,3.14
2019-03-09T06:15:39.786Z,3.12
2019-03-09T06:18:11.124Z,3.17
2019-03-09T06:20:42.480Z,3.14
2019-03-09T06:23:13.831Z,3.16
2019-03-09T06:25:45.244Z,3.21
2019-03-09T06:28:16.478Z,3.31
2019-03-09T06:30:47.743Z,3.41
2019-03-09T06:33:37.121Z,3.49
2019-03-09T06:36:51.029Z,3.60
2019-03-09T06:39:34.626Z,3.73
2019-03-09T06:42:35.095Z,3.89
2019-03-09T06:45:08.987Z,3.96
2019-03-09T06:47:40.457Z,4.04
2019-03-09T06:50:14.116Z,4.12
2019-03-09T06:52:45.364Z,4.20
2019-03-09T06:55:18.450Z,4.26
2019-03-09T06:57:49.710Z,4.32
2019-03-09T07:00:33.119Z,4.41
2019-03-09T07:03:04.764Z,4.48
2019-03-09T07:05:36.234Z,4.56
2019-03-09T07:08:07.521Z,4.63
2019-03-09T07:10:39.026Z,4.77
2019-03-09T07:13:10.455Z,4.90
2019-03-09T07:15:43.701Z,5.03
2019-03-09T07:18:17.399Z,5.15
2019-03-09T07:20:48.847Z,5.36
2019-03-09T07:23:20.240Z,5.58
2019-03-09T07:25:51.522Z,5.85
2019-03-09T07:28:22.805Z,6.18
2019-03-09T07:30:54.091Z,6.46
2019-03-09T07:33:25.475Z,6.71
2019-03-09T07:35:56.779Z,6.94
2019-03-09T07:38:28.282Z,7.20
2019-03-09T07:40:59.632Z,7.48
2019-03-09T07:43:31.014Z,7.72
2019-03-09T07:46:02.276Z,7.98
2019-03-09T07:48:35.648Z,8.11
2019-03-09T07:51:06.926Z,8.22
2019-03-09T07:53:38.308Z,7.73
2019-03-09T07:56:09.615Z,8.51
2019-03-09T07:58:40.890Z,8.50
2019-03-09T08:01:12.148Z,8.60
2019-03-09T08:03:43.553Z,8.70
2019-03-09T08:06:14.882Z,8.83
2019-03-09T08:08:46.188Z,8.91
2019-03-09T08:11:17.543Z,8.98
2019-03-09T08:13:48.855Z,9.08
2019-03-09T08:16:20.171Z,9.22
2019-03-09T08:18:52.882Z,9.24
2019-03-09T08:21:24.209Z,9.23
2019-03-09T08:23:56.555Z,9.24
2019-03-09T08:26:27.961Z,9.36
2019-03-09T08:28:59.268Z,9.46
2019-03-09T08:31:30.600Z,9.54
2019-03-09T08:34:01.896Z,9.71
2019-03-09T08:36:35.019Z,9.85
2019-03-09T08:39:07.637Z,10.05
2019-03-09T08:41:39.105Z,10.27
2019-03-09T08:44:10.615Z,10.53
2019-03-09T08:46:42.140Z,10.69
2019-03-09T08:49:13.963Z,10.72
2019-03-09T08:51:45.310Z,10.79
2019-03-09T08:54:16.742Z,10.78
2019-03-09T08:56:48.001Z,10.72
2019-03-09T08:59:19.491Z,10.83
2019-03-09T09:01:50.903Z,11.10
2019-03-09T09:04:22.211Z,11.10
2019-03-09T09:06:53.471Z,11.20
2019-03-09T09:09:25.049Z,11.32
2019-03-09T09:11:56.498Z,11.50
2019-03-09T09:14:27.760Z,11.58
2019-03-09T09:16:59.220Z,11.67
2019-03-09T09:19:30.977Z,11.72
2019-03-09T09:22:02.228Z,11.74
2019-03-09T09:24:33.645Z,11.79
2019-03-09T09:27:05.070Z,11.91
2019-03-09T09:29:36.470Z,12.00
2019-03-09T09:32:07.743Z,12.00
2019-03-09T09:34:39.393Z,12.15
2019-03-09T09:37:10.782Z,12.21
2019-03-09T09:39:42.778Z,12.17
2019-03-09T09:42:14.035Z,12.27
2019-03-09T09:44:45.418Z,12.25
2019-03-09T09:47:16.761Z,12.26
2019-03-09T09:49:48.111Z,12.22
2019-03-09T09:52:19.384Z,12.18
2019-03-09T09:54:50.714Z,12.27
2019-03-09T09:57:22.068Z,12.24
2019-03-09T09:59:53.441Z,12.31
2019-03-09T10:02:24.875Z,12.36
2019-03-09T10:04:56.174Z,12.42
2019-03-09T10:07:27.605Z,12.44
2019-03-09T10:09:59.045Z,12.37
2019-03-09T10:12:30.785Z,12.37
2019-03-09T10:15:02.333Z,12.25
2019-03-09T10:17:33.802Z,12.26
2019-03-09T10:20:05.899Z,12.17
2019-03-09T10:22:37.405Z,11.99
2019-03-09T10:25:09.826Z,11.78
2019-03-09T10:27:41.218Z,11.65
2019-03-09T10:30:15.475Z,11.44
2019-03-09T10:32:46.845Z,11.33
2019-03-09T10:35:18.158Z,11.21
2019-03-09T10:37:49.637Z,11.02
2019-03-09T10:40:21.686Z,10.77
2019-03-09T10:42:53.188Z,10.72
2019-03-09T10:45:24.535Z,10.56
2019-03-09T10:47:55.859Z,10.41
2019-03-09T10:50:27.259Z,10.24
2019-03-09T10:52:58.473Z,10.01
2019-03-09T10:55:31.526Z,9.89
2019-03-09T10:58:02.814Z,10.05
2019-03-09T11:00:34.762Z,10.12
2019-03-09T11:03:06.226Z,10.22
2019-03-09T11:05:37.879Z,10.22
2019-03-09T11:08:09.253Z,10.29
2019-03-09T11:10:40.622Z,10.32
2019-03-09T11:13:12.090Z,10.36
2019-03-09T11:15:43.525Z,10.33
2019-03-09T11:18:14.998Z,10.29
2019-03-09T11:20:46.291Z,10.26
2019-03-09T11:23:17.646Z,10.28
2019-03-09T11:25:50.728Z,10.24
2019-03-09T11:28:22.031Z,10.27
2019-03-09T11:30:53.362Z,10.18
2019-03-09T11:33:24.815Z,10.18
2019-03-09T11:35:56.398Z,10.29
2019-03-09T11:38:27.794Z,10.47
2019-03-09T11:41:00.865Z,10.75
2019-03-09T11:43:32.496Z,11.02
2019-03-09T11:46:03.876Z,11.25
2019-03-09T11:48:35.161Z,11.38
2019-03-09T11:51:07.280Z,11.51
2019-03-09T11:53:38.631Z,11.56
2019-03-09T11:56:09.924Z,11.63
2019-03-09T11:58:41.376Z,11.73
2019-03-09T12:01:12.847Z,11.85
2019-03-09T12:03:44.127Z,11.98
2019-03-09T12:06:15.613Z,12.18
2019-03-09T12:08:46.989Z,12.34
2019-03-09T12:11:18.509Z,12.33
2019-03-09T12:13:49.935Z,12.43
2019-03-09T12:16:21.332Z,12.41
2019-03-09T12:18:52.698Z,12.43
2019-03-09T12:21:24.032Z,12.61
2019-03-09T12:23:55.390Z,12.99
2019-03-09T12:26:30.415Z,13.17
2019-03-09T12:29:01.858Z,13.22
2019-03-09T12:31:33.326Z,13.13
2019-03-09T12:34:04.912Z,13.06
2019-03-09T12:36:36.295Z,13.15
2019-03-09T12:39:10.143Z,13.17
2019-03-09T12:41:41.849Z,13.17
2019-03-09T12:44:13.121Z,13.23
2019-03-09T12:46:44.481Z,13.20
2019-03-09T12:49:15.887Z,13.18
2019-03-09T12:51:47.214Z,13.19
2019-03-09T12:54:18.722Z,13.08
2019-03-09T12:56:50.335Z,13.23
2019-03-09T12:59:22.077Z,13.28
2019-03-09T13:01:53.401Z,13.39
2019-03-09T13:04:24.676Z,13.44
2019-03-09T13:06:56.031Z,13.49
2019-03-09T13:09:27.292Z,13.59
2019-03-09T13:11:58.843Z,13.78
2019-03-09T13:14:30.290Z,13.76
2019-03-09T13:17:01.585Z,13.98
2019-03-09T13:19:32.844Z,14.17
2019-03-09T13:22:04.377Z,14.06
2019-03-09T13:24:35.710Z,14.21
2019-03-09T13:27:07.087Z,14.56
2019-03-09T13:29:38.345Z,14.67
2019-03-09T13:32:09.851Z,14.48
2019-03-09T13:34:41.166Z,14.42
2019-03-09T13:37:12.897Z,14.33
2019-03-09T13:39:44.866Z,14.16
2019-03-09T13:42:16.526Z,14.05
2019-03-09T13:44:47.991Z,13.96
2019-03-09T13:47:19.284Z,13.87
2019-03-09T13:49:52.307Z,13.72
2019-03-09T13:52:23.842Z,13.69
2019-03-09T13:54:55.246Z,13.56
2019-03-09T13:57:26.624Z,13.51
2019-03-09T13:59:58.010Z,13.55
2019-03-09T14:02:29.501Z,13.44
2019-03-09T14:05:00.851Z,13.60
2019-03-09T14:07:32.219Z,13.61
2019-03-09T14:10:03.993Z,13.66
2019-03-09T14:12:35.345Z,13.67
2019-03-09T14:15:07.641Z,13.61
2019-03-09T14:17:39.059Z,13.81
2019-03-09T14:20:11.392Z,13.85
2019-03-09T14:22:42.768Z,13.86
2019-03-09T14:25:14.986Z,13.96
2019-03-09T14:27:46.338Z,14.16
2019-03-09T14:30:17.716Z,14.19
2019-03-09T14:32:49.201Z,14.30
2019-03-09T14:35:20.730Z,14.31
2019-03-09T14:37:52.253Z,14.31
2019-03-09T14:40:25.204Z,14.45
2019-03-09T14:42:56.653Z,14.42
2019-03-09T14:45:28.492Z,14.47
2019-03-09T14:47:59.876Z,14.43
2019-03-09T14:50:31.307Z,14.38
2019-03-09T14:53:02.594Z,14.26
2019-03-09T14:55:33.952Z,14.01
2019-03-09T14:58:05.886Z,13.92
2019-03-09T15:00:37.172Z,13.88
2019-03-09T15:03:08.769Z,13.80
2019-03-09T15:05:40.301Z,13.80
2019-03-09T15:08:12.021Z,13.72
2019-03-09T15:10:43.571Z,13.61
2019-03-09T15:13:16.671Z,13.66
2019-03-09T15:15:48.047Z,13.70
2019-03-09T15:18:19.361Z,13.68
2019-03-09T15:20:50.796Z,13.67
2019-03-09T15:23:22.137Z,13.44
2019-03-09T15:25:53.511Z,13.48
2019-03-09T15:28:24.956Z,13.44
2019-03-09T15:30:56.255Z,13.31
2019-03-09T15:33:27.738Z,13.19
2019-03-09T15:35:59.101Z,13.19
2019-03-09T15:38:31.021Z,13.09
2019-03-09T15:41:02.406Z,13.04
2019-03-09T15:43:34.128Z,12.98
2019-03-09T15:46:05.474Z,12.80
2019-03-09T15:48:36.960Z,12.73
2019-03-09T15:51:08.473Z,12.65
2019-03-09T15:53:39.833Z,12.58
2019-03-09T15:56:11.344Z,12.71
2019-03-09T15:58:42.790Z,12.58
2019-03-09T16:01:14.177Z,12.62
2019-03-09T16:03:45.528Z,12.66
2019-03-09T16:06:17.427Z,12.54
2019-03-09T16:08:48.876Z,12.42
2019-03-09T16:11:20.226Z,12.37
2019-03-09T16:13:51.581Z,12.18
2019-03-09T16:16:23.020Z,12.12
2019-03-09T16:18:54.919Z,12.10
2019-03-09T16:21:26.379Z,11.83
2019-03-09T16:23:57.696Z,11.80
2019-03-09T16:26:29.095Z,11.65
2019-03-09T16:29:00.453Z,11.59
2019-03-09T16:31:31.971Z,11.55
2019-03-09T16:34:03.371Z,11.43
2019-03-09T16:36:34.710Z,11.40
2019-03-09T16:39:06.743Z,11.39
2019-03-09T16:41:38.157Z,11.45
2019-03-09T16:44:09.680Z,11.48
2019-03-09T16:46:40.944Z,11.38
2019-03-09T16:49:12.428Z,11.21
2019-03-09T16:51:43.922Z,11.15
2019-03-09T16:54:15.191Z,11.01
2019-03-09T16:56:46.739Z,10.93
2019-03-09T16:59:18.196Z,10.95
2019-03-09T17:01:49.467Z,10.77
2019-03-09T17:04:20.900Z,10.77
2019-03-09T17:06:52.460Z,10.78
2019-03-09T17:09:23.903Z,10.68
2019-03-09T17:11:55.367Z,10.68
2019-03-09T17:14:26.862Z,10.43
2019-03-09T17:16:58.253Z,10.52
2019-03-09T17:19:29.944Z,10.35
2019-03-09T17:22:01.325Z,10.29
2019-03-09T17:24:32.777Z,10.32
2019-03-09T17:27:04.267Z,10.25
2019-03-09T17:29:35.802Z,10.21
2019-03-09T17:32:07.103Z,10.23
2019-03-09T17:34:38.644Z,10.17
2019-03-09T17:37:10.181Z,10.17
2019-03-09T17:39:41.502Z,10.19
2019-03-09T17:42:12.943Z,10.13
2019-03-09T17:44:44.437Z,9.93
2019-03-09T17:47:15.854Z,9.93
2019-03-09T17:49:48.341Z,9.92
2019-03-09T17:52:19.677Z,9.86
2019-03-09T17:54:51.039Z,9.73
2019-03-09T17:57:22.411Z,9.73
2019-03-09T17:59:53.907Z,9.66
2019-03-09T18:02:25.231Z,9.60
2019-03-09T18:04:56.934Z,9.62
2019-03-09T18:07:28.293Z,9.71
2019-03-09T18:09:59.732Z,9.59
2019-03-09T18:12:31.016Z,9.53
2019-03-09T18:15:02.409Z,9.45
2019-03-09T18:17:34.557Z,9.38
2019-03-09T18:20:06.094Z,9.33
2019-03-09T18:22:37.492Z,9.29
2019-03-09T18:25:09.014Z,9.24
2019-03-09T18:27:40.318Z,9.26
2019-03-09T18:30:12.539Z,9.54
2019-03-09T18:32:44.010Z,9.41
2019-03-09T18:35:15.362Z,9.34
2019-03-09T18:37:46.939Z,9.30
2019-03-09T18:40:18.293Z,9.31
2019-03-09T18:42:49.722Z,9.34
2019-03-09T18:45:21.074Z,9.33
2019-03-09T18:47:52.435Z,9.43
2019-03-09T18:50:24.842Z,9.38
2019-03-09T18:52:56.078Z,9.45
2019-03-09T18:55:27.404Z,9.36
2019-03-09T18:57:58.846Z,9.38
2019-03-09T19:00:30.103Z,9.35
2019-03-09T19:03:01.433Z,9.35
2019-03-09T19:05:32.706Z,9.35
2019-03-09T19:08:03.972Z,9.37
2019-03-09T19:10:35.367Z,9.34
2019-03-09T19:13:06.798Z,9.41
2019-03-09T19:15:38.071Z,9.38
2019-03-09T19:18:09.504Z,9.39
2019-03-09T19:20:40.841Z,9.40
2019-03-09T19:23:14.250Z,9.43
2019-03-09T19:25:45.636Z,9.46
2019-03-09T19:28:16.903Z,9.66
2019-03-09T19:30:48.172Z,9.67
2019-03-09T19:33:19.600Z,9.65
2019-03-09T19:35:51.114Z,9.94
2019-03-09T19:38:22.386Z,9.97
2019-03-09T19:40:53.869Z,9.99
2019-03-09T19:43:25.209Z,10.10
2019-03-09T19:45:56.495Z,10.05
2019-03-09T19:48:27.813Z,10.08
2019-03-09T19:50:59.292Z,10.33
2019-03-09T19:53:30.689Z,10.42
2019-03-09T19:56:02.216Z,10.37
2019-03-09T19:58:33.705Z,10.68
2019-03-09T20:01:07.681Z,10.77
2019-03-09T20:03:40.113Z,11.06
2019-03-09T20:06:11.689Z,11.26
2019-03-09T20:08:45.603Z,11.41
2019-03-09T20:11:17.194Z,11.54
2019-03-09T20:13:48.671Z,11.72
2019-03-09T20:16:20.165Z,11.78
2019-03-09T20:18:51.561Z,11.82
2019-03-09T20:21:23.155Z,12.03
2019-03-09T20:23:54.482Z,12.10
2019-03-09T20:26:27.617Z,12.14
2019-03-09T20:28:58.991Z,12.03
2019-03-09T20:31:30.491Z,12.10
2019-03-09T20:34:01.771Z,12.10
2019-03-09T20:36:33.118Z,12.11
2019-03-09T20:39:05.518Z,12.07
2019-03-09T20:41:37.178Z,12.22
2019-03-09T20:44:08.596Z,12.10
2019-03-09T20:46:42.111Z,12.08
2019-03-09T20:49:13.164Z,12.04
2019-03-09T20:51:44.938Z,12.05
2019-03-09T20:54:16.395Z,12.16
2019-03-09T20:56:48.015Z,12.08
2019-03-09T20:59:19.690Z,12.00
2019-03-09T21:01:51.020Z,11.88
2019-03-09T21:04:22.426Z,11.86
2019-03-09T21:06:53.805Z,11.90
2019-03-09T21:09:25.198Z,11.95
2019-03-09T21:11:56.521Z,11.81
2019-03-09T21:14:27.842Z,11.79
2019-03-09T21:16:59.890Z,11.88
2019-03-09T21:19:31.351Z,11.77
2019-03-09T21:22:03.069Z,11.83
2019-03-09T21:24:34.878Z,11.78
2019-03-09T21:27:06.172Z,11.76
2019-03-09T21:29:37.473Z,11.89
2019-03-09T21:32:08.918Z,11.87
2019-03-09T21:34:41.981Z,11.93
2019-03-09T21:37:14.010Z,11.78
2019-03-09T21:39:45.415Z,11.92
2019-03-09T21:42:16.781Z,11.93
2019-03-09T21:44:48.848Z,12.00
2019-03-09T21:47:20.461Z,11.98
2019-03-09T21:49:51.838Z,11.86
2019-03-09T21:52:23.422Z,11.99
2019-03-09T21:54:57.800Z,11.98
2019-03-09T21:57:29.363Z,12.05
2019-03-09T22:00:04.773Z,12.03
2019-03-09T22:02:36.126Z,11.85
2019-03-09T22:05:09.799Z,11.83
2019-03-09T22:07:41.332Z,12.00
2019-03-09T22:10:13.176Z,12.09
2019-03-09T22:12:44.817Z,12.07
2019-03-09T22:15:16.164Z,11.91
2019-03-09T22:17:47.478Z,12.03
2019-03-09T22:20:20.619Z,12.01
2019-03-09T22:22:53.475Z,11.97
2019-03-09T22:25:24.856Z,12.16
2019-03-09T22:27:57.124Z,12.16
2019-03-09T22:30:28.473Z,12.13
2019-03-09T22:32:59.785Z,12.16
2019-03-09T22:35:31.140Z,12.25
2019-03-09T22:38:02.695Z,12.20
2019-03-09T22:40:34.136Z,12.27
2019-03-09T22:43:05.589Z,12.21
2019-03-09T22:45:37.032Z,12.12
2019-03-09T22:48:08.367Z,12.13
2019-03-09T22:50:39.894Z,12.27
2019-03-09T22:53:11.568Z,12.23
2019-03-09T22:55:42.853Z,12.18
2019-03-09T22:58:14.184Z,12.17
2019-03-09T23:00:45.530Z,12.15
2019-03-09T23:03:16.982Z,12.30
2019-03-09T23:05:48.411Z,12.32
2019-03-09T23:08:19.962Z,12.27
2019-03-09T23:10:53.056Z,12.19
2019-03-09T23:13:24.600Z,12.25
2019-03-09T23:15:55.986Z,12.24
2019-03-09T23:18:27.401Z,12.07
2019-03-09T23:20:58.776Z,12.04
2019-03-09T23:23:30.221Z,12.15
2019-03-09T23:26:01.611Z,12.08
2019-03-09T23:28:46.359Z,12.12
2019-03-09T23:31:17.629Z,12.19
2019-03-09T23:33:49.202Z,12.30
2019-03-09T23:36:20.846Z,12.30
2019-03-09T23:38:52.201Z,12.24
2019-03-09T23:41:23.651Z,12.37
2019-03-09T23:43:55.116Z,12.39
2019-03-09T23:46:26.533Z,12.35
2019-03-09T23:48:57.796Z,12.21
2019-03-09T23:51:29.089Z,12.28
2019-03-09T23:54:01.354Z,12.28
2019-03-09T23:56:32.772Z,12.24
2019-03-09T23:59:04.217Z,12.24
